Time;durP1;ratioP1;P1;durP2;ratioP2;P2;SDS_P1;SDS_P2;PMS_P1;PMS_P2;Temp;Humidity;BMP_temperature;BMP_pressure;BME280_temperature;BME280_humidity;BME280_pressure;Samples;Min_cycle;Max_cycle;Signal;HPM_P1;HPM_P2
2022/08/08 00:00:56;;;;;;;2.60;2.10;;;;;;;15.67;71.42;100302.34;4894910;29;20055;-81
2022/08/08 00:03:53;;;;;;;2.50;2.30;;;;;;;15.68;71.16;100311.94;4894345;29;20029;-81
2022/08/08 00:06:41;;;;;;;4.45;3.13;;;;;;;15.68;71.23;100312.78;4894476;29;20100;-82
2022/08/08 00:09:21;;;;;;;2.85;2.20;;;;;;;15.64;72.38;100313.03;4894819;29;20041;-82
2022/08/08 00:11:56;;;;;;;5.43;2.47;;;;;;;15.57;71.41;100304.63;4879374;29;20056;-82
2022/08/08 00:14:43;;;;;;;2.20;2.00;;;;;;;15.62;70.39;100304.38;4894514;29;20037;-81
2022/08/08 00:17:14;;;;;;;2.33;2.10;;;;;;;15.60;71.06;100303.63;4894560;29;20029;-81
2022/08/08 00:19:47;;;;;;;2.65;2.30;;;;;;;15.63;71.25;100306.06;4894900;29;20048;-82
2022/08/08 00:22:27;;;;;;;2.45;2.25;;;;;;;15.56;71.53;100291.59;4931243;29;20044;-84
2022/08/08 00:25:02;;;;;;;2.72;2.33;;;;;;;15.56;70.71;100296.88;4932346;29;20373;-85
2022/08/08 00:27:28;;;;;;;3.08;2.33;;;;;;;15.53;70.17;100289.16;4932046;29;20091;-85
2022/08/08 00:29:59;;;;;;;4.00;2.70;;;;;;;15.57;71.74;100298.53;4932604;29;20064;-85
2022/08/08 00:32:30;;;;;;;2.42;2.22;;;;;;;15.54;70.87;100283.81;4975481;28;20037;-84
2022/08/08 00:35:26;;;;;;;3.17;2.30;;;;;;;15.62;71.01;100312.25;5052186;28;20484;-83
2022/08/08 00:37:57;;;;;;;2.50;2.30;;;;;;;15.61;70.82;100310.56;4973972;28;20038;-90
2022/08/08 00:40:28;;;;;;;2.70;2.50;;;;;;;15.57;70.56;100304.63;4973526;28;20072;-82
2022/08/08 00:43:12;;;;;;;3.88;2.45;;;;;;;15.55;71.39;100303.03;4973772;28;20077;-85
2022/08/08 00:46:03;;;;;;;2.60;2.40;;;;;;;15.49;70.92;100301.59;4970174;28;20053;-84
2022/08/08 00:49:08;;;;;;;3.28;2.42;;;;;;;15.45;72.07;100313.22;4954112;28;20039;-81
2022/08/08 00:51:36;;;;;;;3.83;2.97;;;;;;;15.40;72.90;100313.47;4970383;28;20023;-81
2022/08/08 00:54:21;;;;;;;2.65;2.40;;;;;;;15.33;72.90;100314.72;4970887;28;20184;-83
2022/08/08 00:57:07;;;;;;;4.75;2.58;;;;;;;15.30;73.35;100314.09;4954296;28;20035;-81
2022/08/08 00:59:51;;;;;;;2.55;2.28;;;;;;;15.25;73.94;100316.94;4970208;28;20030;-83
2022/08/08 01:02:46;;;;;;;2.58;2.20;;;;;;;15.15;74.60;100305.25;4970360;28;20123;-83
2022/08/08 01:05:34;;;;;;;2.75;2.33;;;;;;;15.17;75.54;100304.25;4970118;28;20072;-83
2022/08/08 01:08:28;;;;;;;2.70;2.30;;;;;;;15.16;75.87;100317.44;4954216;28;20037;-82
2022/08/08 01:11:35;;;;;;;3.97;2.75;;;;;;;15.11;76.69;100314.22;4915924;29;20043;-83
2022/08/08 01:14:22;;;;;;;3.15;2.50;;;;;;;15.05;76.67;100319.81;4919312;29;20035;-82
2022/08/08 01:16:47;;;;;;;3.47;2.60;;;;;;;15.02;76.98;100320.00;4943210;28;20039;-82
2022/08/08 01:19:59;;;;;;;2.55;2.35;;;;;;;15.00;77.99;100319.22;4976589;28;20037;-82
2022/08/08 01:22:43;;;;;;;3.55;2.67;;;;;;;14.94;77.91;100318.63;4976518;28;20109;-81
2022/08/08 01:25:43;;;;;;;3.65;2.53;;;;;;;14.89;78.00;100314.56;4976541;28;20034;-83
2022/08/08 01:28:33;;;;;;;2.85;2.30;;;;;;;14.74;79.11;100292.59;4965594;28;20043;-82
2022/08/08 01:31:35;;;;;;;2.38;2.17;;;;;;;14.78;78.93;100309.88;4967023;28;20027;-80
2022/08/08 01:34:28;;;;;;;2.45;2.05;;;;;;;14.73;79.48;100314.53;4970782;28;20460;-81
2022/08/08 01:37:32;;;;;;;3.42;2.60;;;;;;;14.67;80.89;100305.22;4967075;28;20037;-83
2022/08/08 01:40:22;;;;;;;2.95;2.22;;;;;;;14.54;80.92;100298.94;4966894;28;20455;-82
2022/08/08 01:42:54;;;;;;;2.85;2.40;;;;;;;14.53;81.00;100301.63;4966636;28;20420;-83
2022/08/08 01:45:53;;;;;;;5.47;2.75;;;;;;;14.53;81.26;100305.06;4946977;29;20171;-82
2022/08/08 01:48:28;;;;;;;7.70;2.35;;;;;;;14.45;82.23;100308.09;4997796;28;20069;-83
2022/08/08 01:51:22;;;;;;;3.08;2.40;;;;;;;14.35;82.48;100291.13;5023807;28;20049;-82
2022/08/08 01:53:53;;;;;;;2.58;2.38;;;;;;;14.28;82.55;100296.75;5024172;28;20108;-82
2022/08/08 01:56:37;;;;;;;;;;;;;;;14.32;82.75;100306.16;5017755;28;20408;-82
2022/08/08 01:59:34;;;;;;;2.88;2.30;;;;;;;14.25;83.01;100310.88;5031620;28;20446;-82
2022/08/08 02:02:27;;;;;;;3.22;2.58;;;;;;;14.09;83.81;100284.63;4975120;28;20031;-82
2022/08/08 02:05:19;;;;;;;2.85;2.60;;;;;;;14.17;84.20;100302.56;4957400;28;20122;-82
2022/08/08 02:07:56;;;;;;;3.08;2.67;;;;;;;14.14;84.66;100297.47;4973117;28;20042;-82
2022/08/08 02:10:31;;;;;;;2.67;2.47;;;;;;;14.12;85.04;100307.22;4975780;28;20046;-82
2022/08/08 02:13:03;;;;;;;3.78;2.70;;;;;;;14.09;85.95;100299.50;4978229;28;20058;-82
2022/08/08 02:15:51;;;;;;;3.25;2.17;;;;;;;14.05;86.51;100296.19;4979199;28;20121;-82
2022/08/08 02:18:42;;;;;;;6.00;2.92;;;;;;;14.04;87.21;100298.88;4995826;28;20030;-83
2022/08/08 02:24:20;;;;;;;2.40;2.20;;;;;;;14.01;86.92;100306.91;4946463;28;20082;-82
2022/08/08 02:26:49;;;;;;;3.35;2.38;;;;;;;13.97;87.40;100303.56;4944372;29;20063;-83
2022/08/08 02:29:35;;;;;;;2.47;2.28;;;;;;;13.87;87.03;100308.44;4942554;29;20043;-83
2022/08/08 02:32:21;;;;;;;2.63;2.38;;;;;;;13.91;87.17;100319.59;4908409;29;20044;-83
2022/08/08 02:35:12;;;;;;;2.30;2.10;;;;;;;13.89;86.89;100314.44;4908840;29;20127;-83
2022/08/08 02:37:56;;;;;;;2.55;2.20;;;;;;;13.91;87.58;100323.06;4922479;29;20044;-83
2022/08/08 02:40:24;;;;;;;2.88;2.35;;;;;;;13.88;88.00;100322.38;4934597;29;20046;-83
2022/08/08 02:43:30;;;;;;;3.85;2.30;;;;;;;13.85;88.72;100325.97;4959950;28;20043;-83
2022/08/08 02:46:17;;;;;;;2.53;2.33;;;;;;;13.84;88.61;100323.44;4954035;29;20528;-83
2022/08/08 02:49:19;;;;;;;4.88;2.35;;;;;;;13.79;88.87;100320.22;4939401;28;20038;-83
2022/08/08 02:52:03;;;;;;;2.55;2.35;;;;;;;13.71;89.06;100324.03;4928517;29;20036;-83
2022/08/08 02:54:50;;;;;;;4.28;2.47;;;;;;;13.70;89.87;100322.34;4954069;28;20110;-83
2022/08/08 02:57:43;;;;;;;4.18;2.70;;;;;;;13.68;89.99;100331.19;4953613;29;20126;-83
2022/08/08 03:00:30;;;;;;;3.75;2.50;;;;;;;13.58;90.59;100319.47;4957717;28;20054;-82
2022/08/08 03:03:16;;;;;;;3.30;2.30;;;;;;;13.57;90.86;100338.69;4992559;28;20049;-82
2022/08/08 03:05:50;;;;;;;3.15;2.45;;;;;;;13.57;92.22;100336.97;4992019;28;20645;-83
2022/08/08 03:08:41;;;;;;;2.70;2.30;;;;;;;13.54;92.17;100334.47;4981311;28;20541;-83
2022/08/08 03:11:40;;;;;;;3.47;2.78;;;;;;;13.48;92.48;100337.38;5011362;28;20686;-83
2022/08/08 03:14:17;;;;;;;2.58;2.38;;;;;;;13.39;93.35;100336.03;5011584;28;20091;-83
2022/08/08 03:17:09;;;;;;;2.40;2.20;;;;;;;13.42;94.11;100342.91;5011672;28;20034;-83
2022/08/08 03:19:59;;;;;;;2.97;2.75;;;;;;;13.41;95.10;100334.22;4952928;29;20035;-83
2022/08/08 03:22:25;;;;;;;4.10;2.30;;;;;;;13.41;95.38;100338.59;4953121;29;20039;-83
2022/08/08 03:24:51;;;;;;;3.47;2.60;;;;;;;13.36;95.81;100337.97;4953098;29;20083;-83
2022/08/08 03:27:27;;;;;;;5.53;2.30;;;;;;;13.36;96.22;100348.44;4952736;28;20293;-83
2022/08/08 03:30:01;;;;;;;2.55;2.35;;;;;;;13.33;96.67;100345.97;4952925;29;20031;-83
2022/08/08 03:35:10;;;;;;;6.53;2.78;;;;;;;13.34;95.35;100353.72;4953209;28;20050;-84
2022/08/08 03:37:36;;;;;;;5.05;2.85;;;;;;;13.29;95.71;100340.03;4951366;28;20043;-83
2022/08/08 03:40:03;;;;;;;3.10;2.60;;;;;;;13.37;95.80;100353.59;4953168;29;20074;-83
2022/08/08 03:42:29;;;;;;;3.47;2.88;;;;;;;13.31;95.88;100337.31;4964896;28;20137;-83
2022/08/08 03:44:54;;;;;;;3.20;2.60;;;;;;;13.35;95.71;100346.72;4972006;28;20110;-83
2022/08/08 03:47:21;;;;;;;3.40;2.70;;;;;;;13.28;95.75;100340.94;4975830;28;20058;-82
2022/08/08 03:49:47;;;;;;;4.30;2.60;;;;;;;13.30;96.19;100346.09;4974989;28;20034;-82
2022/08/08 03:52:13;;;;;;;3.63;2.65;;;;;;;13.32;96.23;100345.13;4991277;28;20061;-82
2022/08/08 03:54:41;;;;;;;4.35;3.03;;;;;;;13.31;96.67;100345.19;4990988;28;20066;-83
2022/08/08 03:57:15;;;;;;;4.10;2.90;;;;;;;13.34;96.74;100345.88;5023532;28;20135;-83
2022/08/08 03:59:40;;;;;;;3.22;2.40;;;;;;;13.41;96.60;100339.44;5035015;28;20473;-83
2022/08/08 04:02:17;;;;;;;2.88;2.50;;;;;;;13.45;96.44;100335.78;5052998;28;20025;-83
2022/08/08 04:04:43;;;;;;;4.22;2.75;;;;;;;13.59;96.60;100340.34;5052627;28;20056;-83
2022/08/08 04:07:08;;;;;;;4.85;2.80;;;;;;;13.70;95.77;100334.59;5034785;28;20021;-83
2022/08/08 04:09:33;;;;;;;5.72;2.40;;;;;;;13.88;94.83;100348.56;5034493;28;20029;-83
2022/08/08 04:11:59;;;;;;;3.22;2.90;;;;;;;14.08;93.89;100332.69;5034521;28;20024;-83
2022/08/08 04:14:25;;;;;;;3.17;2.40;;;;;;;14.37;92.85;100330.38;5034579;28;20024;-84
2022/08/08 04:16:51;;;;;;;3.40;2.47;;;;;;;14.73;92.10;100344.22;5052707;28;20108;-83
2022/08/08 04:19:16;;;;;;;4.20;2.67;;;;;;;15.07;91.26;100344.19;5034438;28;20076;-83
2022/08/08 04:21:41;;;;;;;3.58;2.83;;;;;;;15.46;89.92;100341.13;5052330;28;20025;-84
2022/08/08 04:24:07;;;;;;;3.25;2.30;;;;;;;16.33;86.27;100335.31;5052563;28;20033;-84
2022/08/08 04:26:32;;;;;;;3.10;2.80;;;;;;;17.26;82.05;100340.13;5034199;28;20563;-84
2022/08/08 04:28:58;;;;;;;4.05;2.35;;;;;;;17.90;79.29;100345.66;5034572;28;20029;-84
2022/08/08 04:31:24;;;;;;;2.50;2.30;;;;;;;18.08;77.96;100331.28;5034300;28;20029;-83
2022/08/08 04:33:49;;;;;;;2.30;2.10;;;;;;;18.16;77.22;100336.91;5052702;28;20051;-83
2022/08/08 04:36:15;;;;;;;2.60;2.15;;;;;;;18.49;75.77;100354.00;5034327;28;20024;-84
2022/08/08 04:38:40;;;;;;;2.47;2.22;;;;;;;18.83;74.00;100356.97;5051844;28;20036;-83
2022/08/08 04:41:06;;;;;;;5.57;2.70;;;;;;;19.08;72.67;100358.75;5052309;28;20029;-83
2022/08/08 04:43:31;;;;;;;3.88;2.53;;;;;;;19.53;71.44;100349.31;5034109;28;20021;-83
2022/08/08 04:45:57;;;;;;;3.70;2.53;;;;;;;20.58;67.85;100348.53;5034367;28;20472;-84
2022/08/08 04:48:22;;;;;;;3.40;2.60;;;;;;;21.68;63.40;100370.75;5050921;28;20377;-85
2022/08/08 04:50:47;;;;;;;6.10;2.60;;;;;;;22.36;60.53;100361.56;5051840;28;20020;-85
2022/08/08 04:53:13;;;;;;;5.22;2.90;;;;;;;22.30;59.37;100355.94;5051968;28;20078;-85
2022/08/08 04:55:38;;;;;;;3.85;2.67;;;;;;;22.21;60.01;100370.00;5033592;28;20044;-85
2022/08/08 04:58:04;;;;;;;2.80;2.50;;;;;;;22.02;60.08;100378.59;5034220;28;20028;-85
2022/08/08 05:00:29;;;;;;;3.88;2.30;;;;;;;21.93;60.26;100388.16;5033784;28;20045;-86
2022/08/08 05:02:55;;;;;;;3.33;2.20;;;;;;;21.82;59.47;100357.19;5052206;28;20112;-85
2022/08/08 05:05:20;;;;;;;5.43;2.40;;;;;;;22.39;57.75;100371.94;5033685;28;20049;-84
2022/08/08 05:07:46;;;;;;;7.93;2.47;;;;;;;23.85;54.23;100380.47;5051734;28;20210;-85
2022/08/08 05:10:11;;;;;;;4.53;2.15;;;;;;;25.39;49.44;100381.13;5033763;28;20033;-84
2022/08/08 05:12:37;;;;;;;2.72;1.98;;;;;;;26.38;46.32;100378.44;5033665;28;20072;-84
2022/08/08 05:15:02;;;;;;;2.10;1.90;;;;;;;26.09;45.72;100389.41;5033993;28;20025;-85
2022/08/08 05:17:27;;;;;;;2.08;1.88;;;;;;;25.62;46.04;100390.41;5033611;28;20032;-85
2022/08/08 05:19:53;;;;;;;3.08;1.90;;;;;;;25.44;47.59;100386.84;5051839;28;20064;-84
2022/08/08 05:22:18;;;;;;;2.17;1.58;;;;;;;25.23;47.08;100372.94;5051922;28;20064;-85
2022/08/08 05:24:44;;;;;;;2.13;1.83;;;;;;;25.18;47.51;100386.72;5033295;28;20029;-84
2022/08/08 05:27:09;;;;;;;2.30;1.60;;;;;;;25.74;46.59;100396.34;5033941;28;20558;-85
2022/08/08 05:29:35;;;;;;;3.28;1.60;;;;;;;27.11;43.98;100386.09;5032090;28;20029;-85
2022/08/08 05:32:00;;;;;;;4.57;1.90;;;;;;;27.96;42.73;100391.38;5050136;28;20067;-85
2022/08/08 05:34:51;;;;;;;1.58;1.48;;;;;;;27.84;42.66;100404.25;5049923;28;20029;-84
2022/08/08 05:37:27;;;;;;;2.10;1.70;;;;;;;27.18;42.55;100408.53;5049438;28;20728;-85
2022/08/08 05:39:54;;;;;;;3.38;1.80;;;;;;;26.92;42.92;100400.50;5050335;28;20054;-84
2022/08/08 05:42:28;;;;;;;2.50;1.55;;;;;;;26.83;42.33;100404.97;5050439;28;20035;-85
2022/08/08 05:44:57;;;;;;;2.00;1.80;;;;;;;26.65;43.06;100393.50;5050327;28;20504;-84
2022/08/08 05:47:22;;;;;;;2.17;1.40;;;;;;;27.64;41.56;100409.00;5051258;28;20025;-85
2022/08/08 05:49:48;;;;;;;1.83;1.48;;;;;;;29.54;39.31;100407.69;5033409;28;20067;-84
2022/08/08 05:52:13;;;;;;;3.90;1.75;;;;;;;30.66;35.38;100417.97;5051225;28;20112;-85
2022/08/08 05:54:38;;;;;;;1.83;1.60;;;;;;;29.91;36.29;100414.19;5051274;28;20025;-85
2022/08/08 05:57:09;;;;;;;3.17;1.85;;;;;;;28.91;39.27;100410.41;5033470;28;20032;-86
2022/08/08 05:59:36;;;;;;;1.95;1.60;;;;;;;28.57;40.10;100417.69;5033967;28;20029;-85
2022/08/08 06:03:08;;;;;;;1.83;1.40;;;;;;;28.16;38.39;100424.03;5055065;28;20039;-85
2022/08/08 06:04:54;;;;;;;1.33;1.23;;;;;;;28.47;39.16;100418.88;5054876;28;20063;-85
2022/08/08 06:07:20;;;;;;;2.67;1.70;;;;;;;28.85;37.97;100410.09;5037152;28;20017;-85
2022/08/08 06:09:46;;;;;;;2.17;1.48;;;;;;;29.08;38.09;100420.13;5037003;28;20047;-84
2022/08/08 06:12:13;;;;;;;1.45;1.35;;;;;;;29.13;37.99;100425.81;5054847;28;20095;-85
2022/08/08 06:14:38;;;;;;;2.40;1.70;;;;;;;28.70;38.39;100417.19;5054556;28;20098;-85
2022/08/08 06:17:05;;;;;;;1.55;1.38;;;;;;;28.38;38.41;100423.41;5037048;28;20480;-84
2022/08/08 06:19:31;;;;;;;2.55;1.50;;;;;;;28.08;38.06;100427.53;5054866;28;20068;-85
2022/08/08 06:21:57;;;;;;;2.17;1.67;;;;;;;27.97;37.59;100425.19;5036888;28;20028;-85
2022/08/08 06:24:22;;;;;;;2.53;1.60;;;;;;;27.68;38.55;100425.59;5054726;28;20457;-84
2022/08/08 06:26:54;;;;;;;2.97;1.73;;;;;;;26.82;39.39;100426.53;5054625;28;20025;-85
2022/08/08 06:30:01;;;;;;;2.28;1.50;;;;;;;27.61;39.42;100423.56;5054817;28;20029;-84
2022/08/08 06:32:30;;;;;;;3.60;1.70;;;;;;;27.88;38.33;100435.03;4976153;28;20038;-84
2022/08/08 06:35:00;;;;;;;3.72;1.45;;;;;;;27.72;38.99;100438.47;4992783;28;20068;-85
2022/08/08 06:37:29;;;;;;;2.13;1.50;;;;;;;28.00;38.29;100432.88;4992373;28;20038;-84
2022/08/08 06:40:01;;;;;;;10.80;1.70;;;;;;;28.40;37.52;100429.44;4992594;28;20504;-84
2022/08/08 06:42:32;;;;;;;3.70;1.88;;;;;;;28.74;37.67;100425.72;4992333;28;20466;-84
2022/08/08 06:45:00;;;;;;;1.88;1.60;;;;;;;28.98;36.83;100433.72;4976262;28;20040;-84
2022/08/08 06:47:25;;;;;;;1.98;1.48;;;;;;;30.01;35.89;100432.75;4975715;28;20576;-84
2022/08/08 06:49:51;;;;;;;1.80;1.33;;;;;;;33.29;31.49;100425.50;4992847;28;20117;-84
2022/08/08 06:52:16;;;;;;;3.60;1.60;;;;;;;36.32;27.68;100429.03;4992358;28;20117;-84
2022/08/08 06:54:42;;;;;;;2.20;1.77;;;;;;;38.46;25.24;100435.25;4983226;28;20502;-84
2022/08/08 06:57:09;;;;;;;1.60;1.30;;;;;;;40.18;23.68;100438.28;4964423;28;20052;-85
2022/08/08 06:59:36;;;;;;;2.47;1.50;;;;;;;41.48;22.60;100419.66;4986104;28;20157;-85
2022/08/08 07:02:03;;;;;;;4.38;1.55;;;;;;;41.32;21.58;100424.09;4992397;28;20417;-86
2022/08/08 07:04:52;;;;;;;2.45;1.50;;;;;;;40.81;21.94;100439.81;4992128;28;20038;-85
2022/08/08 07:07:44;;;;;;;1.50;1.40;;;;;;;41.47;21.93;100439.88;4992183;28;20133;-85
2022/08/08 07:10:10;;;;;;;1.45;1.30;;;;;;;44.03;20.12;100426.66;5035704;28;20393;-85
2022/08/08 07:12:43;;;;;;;2.08;1.60;;;;;;;44.45;19.73;100428.28;5035574;28;20120;-85
2022/08/08 07:15:13;;;;;;;1.40;1.30;;;;;;;46.02;18.85;100425.94;5035590;28;20082;-85
2022/08/08 07:17:47;;;;;;;1.15;1.10;;;;;;;44.72;19.03;100428.81;5035677;28;20021;-85
2022/08/08 07:20:42;;;;;;;3.42;1.50;;;;;;;44.24;19.03;100427.47;5053852;28;20393;-84
2022/08/08 07:23:21;;;;;;;2.95;1.50;;;;;;;45.25;18.57;100422.84;4991891;28;20048;-86
2022/08/08 07:25:49;;;;;;;2.50;1.27;;;;;;;45.04;18.89;100422.94;4970619;28;20514;-85
2022/08/08 07:28:15;;;;;;;2.03;1.35;;;;;;;45.22;18.23;100424.25;4966118;28;20039;-86
2022/08/08 07:30:43;;;;;;;4.85;1.75;;;;;;;46.26;17.47;100412.25;4963749;28;20033;-87
2022/08/08 07:33:10;;;;;;;2.90;1.90;;;;;;;45.73;18.00;100412.94;4975280;28;20034;-87
2022/08/08 07:35:37;;;;;;;2.97;1.38;;;;;;;43.83;18.80;100417.28;4975173;28;20117;-87
2022/08/08 07:38:03;;;;;;;2.00;1.33;;;;;;;43.85;19.17;100414.28;4975212;28;20037;-86
2022/08/08 07:40:30;;;;;;;1.98;1.13;;;;;;;47.03;17.40;100431.56;4991274;28;20453;-86
2022/08/08 07:42:56;;;;;;;2.55;1.70;;;;;;;48.51;15.96;100429.28;4975199;28;20027;-86
2022/08/08 07:45:22;;;;;;;1.88;1.15;;;;;;;47.60;15.69;100434.38;4975083;28;20030;-86
2022/08/08 07:47:47;;;;;;;2.63;1.55;;;;;;;45.57;17.37;100427.09;4974890;28;20438;-87
2022/08/08 07:50:13;;;;;;;2.38;1.50;;;;;;;46.74;17.09;100421.41;4991401;28;20093;-86
2022/08/08 07:52:43;;;;;;;2.30;1.60;;;;;;;45.22;16.89;100420.66;4974570;28;20039;-86
2022/08/08 07:55:11;;;;;;;2.22;1.20;;;;;;;46.76;17.00;100434.88;4975021;28;20030;-86
2022/08/08 07:57:50;;;;;;;1.33;1.23;;;;;;;46.91;16.24;100442.97;4991087;28;20030;-85
2022/08/08 08:00:16;;;;;;;1.58;1.38;;;;;;;45.42;17.01;100425.25;5014434;28;20066;-83
2022/08/08 08:02:59;;;;;;;2.15;1.30;;;;;;;46.02;17.28;100426.75;5034623;28;20029;-86
2022/08/08 08:05:27;;;;;;;1.75;1.30;;;;;;;46.32;16.63;100424.06;5052859;28;20049;-86
2022/08/08 08:08:02;;;;;;;2.22;1.20;;;;;;;46.21;16.67;100426.88;5052228;28;20021;-86
2022/08/08 08:10:29;;;;;;;2.22;1.50;;;;;;;46.41;16.90;100422.31;5052480;28;20024;-85
2022/08/08 08:13:27;;;;;;;2.05;1.50;;;;;;;46.64;16.72;100423.44;5052621;28;20025;-86
2022/08/08 08:16:05;;;;;;;3.30;1.70;;;;;;;46.16;16.81;100420.59;4974505;28;20039;-87
2022/08/08 08:19:08;;;;;;;2.20;1.40;;;;;;;46.73;17.18;100418.91;4990827;28;20379;-86
2022/08/08 08:21:44;;;;;;;2.60;1.50;;;;;;;47.13;16.69;100423.13;4932633;29;20043;-86
2022/08/08 08:24:10;;;;;;;2.45;1.60;;;;;;;46.80;16.92;100424.09;4932606;29;20072;-86
2022/08/08 08:26:36;;;;;;;1.60;1.50;;;;;;;46.29;17.25;100414.41;4932718;29;20075;-86
2022/08/08 08:29:02;;;;;;;3.35;1.63;;;;;;;46.06;17.27;100415.16;4932826;29;20483;-86
2022/08/08 08:31:27;;;;;;;2.03;1.70;;;;;;;45.34;18.06;100421.13;4916072;29;20407;-85
2022/08/08 08:33:53;;;;;;;1.73;1.33;;;;;;;43.89;18.73;100409.09;4915221;29;20055;-86
2022/08/08 08:36:19;;;;;;;2.85;1.58;;;;;;;38.98;22.17;100410.88;4930861;29;20040;-85
2022/08/08 08:38:45;;;;;;;3.00;1.75;;;;;;;34.74;26.08;100410.59;4932200;29;20476;-85
2022/08/08 08:41:11;;;;;;;3.58;1.70;;;;;;;32.20;29.11;100420.56;4915484;29;20527;-85
2022/08/08 08:43:39;;;;;;;2.97;1.60;;;;;;;30.38;31.44;100415.84;4916129;29;20051;-85
2022/08/08 08:46:08;;;;;;;5.60;1.65;;;;;;;29.72;33.28;100410.13;4932403;29;20040;-85
2022/08/08 08:48:33;;;;;;;2.58;1.88;;;;;;;27.96;35.27;100402.09;4916009;29;20417;-85
2022/08/08 08:51:01;;;;;;;2.55;1.50;;;;;;;27.26;37.25;100408.59;4930043;29;20098;-83
2022/08/08 08:53:27;;;;;;;1.73;1.60;;;;;;;27.15;37.30;100403.50;4969868;28;20043;-84
2022/08/08 08:55:55;;;;;;;2.30;1.52;;;;;;;26.59;38.95;100394.16;4993180;28;20036;-84
2022/08/08 08:58:34;;;;;;;3.63;1.83;;;;;;;26.36;38.70;100417.81;5041174;28;20076;-87
2022/08/08 09:01:01;;;;;;;1.83;1.60;;;;;;;25.17;40.66;100400.22;5025072;28;20520;-87
2022/08/08 09:03:28;;;;;;;2.22;1.60;;;;;;;25.14;40.17;100404.00;5028236;28;20053;-84
2022/08/08 09:05:55;;;;;;;1.30;1.30;;;;;;;25.18;39.30;100420.53;5028321;28;20200;-84
2022/08/08 09:08:23;;;;;;;3.05;1.65;;;;;;;24.79;39.96;100421.47;5029151;28;20575;-84
2022/08/08 09:10:49;;;;;;;1.58;1.48;;;;;;;24.81;40.43;100418.66;5028746;28;20090;-84
2022/08/08 09:13:16;;;;;;;1.60;1.50;;;;;;;24.75;40.18;100406.78;5028947;28;20105;-83
2022/08/08 09:15:42;;;;;;;1.85;1.40;;;;;;;24.93;40.75;100403.34;5028540;28;20560;-83
2022/08/08 09:18:08;;;;;;;1.95;1.75;;;;;;;25.12;40.73;100406.81;5028726;28;20029;-84
2022/08/08 09:20:34;;;;;;;1.60;1.42;;;;;;;25.18;40.09;100405.38;5028745;28;20677;-84
2022/08/08 09:23:00;;;;;;;2.63;2.00;;;;;;;24.78;40.20;100409.16;5028973;28;20076;-84
2022/08/08 09:25:26;;;;;;;4.97;2.60;;;;;;;24.76;41.04;100419.09;5029087;28;20107;-84
2022/08/08 09:27:51;;;;;;;3.38;1.85;;;;;;;24.87;40.42;100418.94;5028717;28;20041;-84
2022/08/08 09:30:17;;;;;;;3.17;2.13;;;;;;;24.97;40.93;100416.22;5028858;28;20436;-83
2022/08/08 09:32:51;;;;;;;3.17;2.10;;;;;;;25.10;40.80;100421.28;5032264;28;20079;-84
2022/08/08 09:35:19;;;;;;;3.63;2.10;;;;;;;24.80;40.83;100411.66;5030233;28;20552;-85
2022/08/08 09:37:46;;;;;;;2.15;1.60;;;;;;;24.78;41.62;100426.97;5051565;28;20071;-84
2022/08/08 09:40:17;;;;;;;3.95;1.80;;;;;;;24.95;40.69;100410.22;5036788;28;20036;-85
2022/08/08 09:42:45;;;;;;;2.63;1.98;;;;;;;25.30;40.41;100424.69;5054673;28;20021;-84
2022/08/08 09:45:20;;;;;;;3.50;1.73;;;;;;;24.97;40.15;100418.91;5054718;28;20025;-85
2022/08/08 09:47:47;;;;;;;3.88;2.55;;;;;;;24.78;41.30;100422.47;5031607;28;20124;-85
2022/08/08 09:50:17;;;;;;;5.10;1.67;;;;;;;24.56;40.79;100406.81;5013028;28;20084;-84
2022/08/08 09:52:49;;;;;;;3.35;2.00;;;;;;;24.46;41.52;100408.66;5022952;28;20042;-84
2022/08/08 09:55:15;;;;;;;2.75;1.85;;;;;;;24.80;41.51;100419.66;5022765;28;20057;-85
2022/08/08 09:57:45;;;;;;;2.92;1.70;;;;;;;24.93;41.18;100422.84;5027310;28;20508;-84
2022/08/08 10:00:11;;;;;;;;;;;;;;;24.82;41.94;100431.03;5033076;28;20572;-84
2022/08/08 10:02:42;;;;;;;2.25;1.60;;;;;;;24.57;42.17;100419.16;5032380;28;19913;-84
2022/08/08 10:05:09;;;;;;;3.10;1.90;;;;;;;24.70;41.88;100426.84;5030275;28;20053;-84
2022/08/08 10:07:35;;;;;;;2.83;1.70;;;;;;;24.89;41.19;100416.13;5012245;28;20037;-84
2022/08/08 10:10:00;;;;;;;2.30;1.73;;;;;;;25.24;41.34;100422.59;5012751;28;20060;-84
2022/08/08 10:12:37;;;;;;;2.10;1.70;;;;;;;25.65;41.59;100426.59;4996800;28;20161;-84
2022/08/08 10:15:06;;;;;;;2.42;2.08;;;;;;;25.61;39.74;100422.56;5012612;28;20038;-83
2022/08/08 10:17:42;;;;;;;2.03;1.60;;;;;;;25.50;39.93;100422.78;4992793;28;20085;-84
2022/08/08 10:20:08;;;;;;;3.70;1.85;;;;;;;25.38;40.67;100416.81;4992898;28;20076;-84
2022/08/08 10:22:41;;;;;;;2.75;1.98;;;;;;;25.25;41.53;100426.97;4992609;28;20479;-84
2022/08/08 10:25:08;;;;;;;2.97;2.03;;;;;;;24.96;40.76;100403.06;4976159;28;20035;-84
2022/08/08 10:27:41;;;;;;;3.15;2.03;;;;;;;24.64;42.31;100422.91;4997211;28;20069;-85
2022/08/08 10:30:08;;;;;;;4.90;2.10;;;;;;;24.30;41.97;100415.34;5010809;28;20053;-85
2022/08/08 10:32:40;;;;;;;2.08;1.80;;;;;;;24.62;42.07;100411.56;4992615;28;20030;-85
2022/08/08 10:35:12;;;;;;;2.90;1.70;;;;;;;24.95;41.17;100398.72;4995710;28;20129;-85
2022/08/08 10:37:49;;;;;;;2.30;1.70;;;;;;;25.21;40.40;100406.94;5011905;28;20065;-85
2022/08/08 10:40:15;;;;;;;2.35;1.48;;;;;;;25.30;40.11;100411.38;4985310;28;20396;-85
2022/08/08 10:42:41;;;;;;;6.63;3.60;;;;;;;24.92;41.46;100418.50;4975992;28;20042;-86
2022/08/08 10:45:09;;;;;;;6.32;2.97;;;;;;;24.45;42.11;100426.47;4975585;28;20433;-85
2022/08/08 10:47:35;;;;;;;2.78;1.83;;;;;;;24.30;42.46;100409.19;4980277;28;20041;-85
2022/08/08 10:50:06;;;;;;;2.20;1.83;;;;;;;24.21;42.93;100402.06;5016797;28;20424;-85
2022/08/08 10:52:36;;;;;;;1.80;1.70;;;;;;;24.27;43.22;100420.13;5016431;28;20033;-85
2022/08/08 10:55:09;;;;;;;2.83;2.28;;;;;;;24.22;43.79;100404.56;5024237;28;20029;-84
2022/08/08 10:57:43;;;;;;;2.80;1.90;;;;;;;24.19;42.50;100398.69;5035967;28;20033;-84
2022/08/08 11:00:11;;;;;;;2.13;1.80;;;;;;;24.26;43.21;100410.47;5035495;28;20028;-84
2022/08/08 11:02:37;;;;;;;1.95;1.75;;;;;;;24.32;42.62;100401.91;5024602;28;20090;-84
2022/08/08 11:05:06;;;;;;;3.85;2.00;;;;;;;24.35;42.80;100407.78;5043589;28;20055;-86
2022/08/08 11:07:32;;;;;;;2.72;1.80;;;;;;;24.28;42.53;100413.84;5024578;28;20083;-86
2022/08/08 11:10:08;;;;;;;1.77;1.67;;;;;;;24.24;42.77;100399.97;5039267;28;20480;-86
2022/08/08 11:12:43;;;;;;;3.28;2.08;;;;;;;24.32;41.66;100381.47;5050260;28;20021;-81
2022/08/08 11:15:11;;;;;;;5.22;2.28;;;;;;;24.57;41.70;100403.19;5034339;28;20029;-81
2022/08/08 11:17:39;;;;;;;3.10;2.00;;;;;;;24.51;40.50;100399.25;5034113;28;20438;-83
2022/08/08 11:20:05;;;;;;;2.42;1.95;;;;;;;24.24;41.27;100396.47;5052725;28;20083;-83
2022/08/08 11:22:32;;;;;;;2.58;1.70;;;;;;;24.52;41.10;100398.25;5052424;28;20037;-82
2022/08/08 11:25:03;;;;;;;4.45;2.28;;;;;;;24.57;41.80;100390.69;5051626;28;20041;-83
2022/08/08 11:27:32;;;;;;;4.78;1.73;;;;;;;24.69;42.42;100404.66;5051887;28;20029;-83
2022/08/08 11:29:59;;;;;;;4.18;2.15;;;;;;;24.39;42.39;100392.41;5051670;28;20052;-83
2022/08/08 11:32:26;;;;;;;1.60;1.50;;;;;;;24.37;41.98;100400.53;5051660;28;20039;-83
2022/08/08 11:35:03;;;;;;;2.97;1.90;;;;;;;24.37;41.83;100395.22;5051473;28;20437;-83
2022/08/08 11:37:30;;;;;;;2.10;1.77;;;;;;;24.02;41.50;100387.78;5050107;28;20025;-85
2022/08/08 11:39:57;;;;;;;2.55;1.70;;;;;;;24.11;42.33;100386.94;5048146;28;20560;-84
2022/08/08 11:42:24;;;;;;;3.30;1.75;;;;;;;24.28;41.78;100392.53;5023484;28;20037;-85
2022/08/08 11:44:51;;;;;;;3.30;2.30;;;;;;;24.09;41.52;100388.03;5041236;28;20066;-85
2022/08/08 11:47:16;;;;;;;2.65;2.10;;;;;;;23.96;42.89;100395.47;5024310;28;20017;-84
2022/08/08 11:49:43;;;;;;;2.80;2.53;;;;;;;23.93;42.83;100395.75;5022575;28;20029;-84
2022/08/08 11:52:09;;;;;;;2.80;2.00;;;;;;;23.80;42.32;100385.38;5041127;28;20029;-85
2022/08/08 11:54:35;;;;;;;4.30;1.85;;;;;;;23.94;42.46;100387.66;5041209;28;20534;-84
2022/08/08 11:57:15;;;;;;;2.72;1.85;;;;;;;24.06;41.87;100385.66;5039827;28;20049;-85
2022/08/08 12:00:01;;;;;;;3.17;1.90;;;;;;;24.20;42.50;100377.28;5025428;28;20052;-85